Newport, Maine
Current Conditions -  °F | °C
As of 3:53 AM on Friday 28 Nov 2014 (Local Time) from KBGR Reporting Station
Overcast Overcast  
Wind Chill:   Ceiling: 20000
Heat Index:   Visibility: 10mi
Dew Point:   Wind: 0mph
Humidity: 88%   Direction: NA
Pressure: 30.03"   Gusts: NA
Location:  44.84°N, 69.27°W
Report Text: KBGR 280853Z 00000KT 10SM OVC200 M13/M14 A3003 RMK AO2 SLP174 I1000 I3000 T11281144 50006
Loading
Personal Weather Stations






























Interactive Weather Map New forecast layout! Learn more

10-Day Weather Forecast

Advertisements
Track Severe Weather on mobile